Spring Lake, Michigan
Current Conditions -  °F | °C
As of 7:55 PM on Saturday 25 Oct 2014 (Local Time) from KMKG Reporting Station
Clear Clear  
Wind Chill: 58°   Ceiling: Unl
Heat Index: 58°   Visibility: 10mi
Dew Point: 40°   Wind: 13mph
Humidity: 51%   Direction: 300°WNW
Pressure: 29.84"   Gusts: NA
Location:  43.08°N, 86.2°W
Report Text: KMKG 252355Z 30011KT 10SM CLR 14/04 A2984 RMK AO2 SLP107 T01440044 10172 20144 53002 $
Loading
Personal Weather Stations






























Interactive Weather Map
Tropical Storm Tracking
New forecast layout! Learn more

10-Day Weather Forecast

Advertisements
Track Severe Weather on mobile